Time;durP1;ratioP1;P1;durP2;ratioP2;P2;SDS_P1;SDS_P2;PMS_P1;PMS_P2;Temp;Humidity;BMP_temperature;BMP_pressure;BME280_temperature;BME280_humidity;BME280_pressure;Samples;Min_cycle;Max_cycle;Signal;HPM_P1;HPM_P2
2021/07/15 00:02:15;;;;;;;0.80;0.20;;;18.80;99.90;;;;;;5016865;28;20758;-82
2021/07/15 00:04:42;;;;;;;0.80;0.30;;;18.80;99.90;;;;;;5033334;28;20172;-82
2021/07/15 00:07:09;;;;;;;0.80;0.30;;;18.80;99.90;;;;;;5034644;28;20675;-82
2021/07/15 00:09:36;;;;;;;0.80;0.20;;;18.80;99.90;;;;;;5034429;28;20565;-82
2021/07/15 00:12:05;;;;;;;0.80;0.20;;;18.70;99.90;;;;;;5035364;28;20695;-82
2021/07/15 00:14:31;;;;;;;0.80;0.20;;;18.70;99.90;;;;;;5035522;28;21491;-82
2021/07/15 00:16:57;;;;;;;0.80;0.20;;;18.70;99.90;;;;;;5035299;28;20723;-81
2021/07/15 00:19:28;;;;;;;0.80;0.20;;;18.60;99.90;;;;;;5035649;28;20162;-82
2021/07/15 00:21:55;;;;;;;0.80;0.20;;;18.60;99.90;;;;;;5037037;28;20611;-82
2021/07/15 00:24:21;;;;;;;0.80;0.20;;;18.60;99.90;;;;;;5036485;28;20575;-83
2021/07/15 00:26:49;;;;;;;0.80;0.30;;;18.60;99.90;;;;;;5036671;28;20690;-82
2021/07/15 00:29:15;;;;;;;0.80;0.20;;;18.50;99.90;;;;;;5040016;28;20584;-83
2021/07/15 00:31:41;;;;;;;0.80;0.30;;;18.50;99.90;;;;;;5035510;28;20612;-83
2021/07/15 00:34:07;;;;;;;0.80;0.30;;;18.50;99.90;;;;;;5033864;28;20943;-83
2021/07/15 00:36:33;;;;;;;0.80;0.30;;;18.50;99.90;;;;;;5034854;28;20218;-82
2021/07/15 00:38:58;;;;;;;0.80;0.20;;;18.40;99.90;;;;;;5034029;28;20212;-83
2021/07/15 00:41:24;;;;;;;0.80;0.20;;;18.40;99.90;;;;;;5034870;28;21179;-82
2021/07/15 00:43:50;;;;;;;0.80;0.30;;;18.40;99.90;;;;;;5035093;28;20177;-82
2021/07/15 00:46:16;;;;;;;0.80;0.20;;;18.40;99.90;;;;;;5034472;28;20169;-82
2021/07/15 00:48:42;;;;;;;0.80;0.20;;;18.40;99.90;;;;;;5033082;28;20177;-82
2021/07/15 00:51:08;;;;;;;0.80;0.20;;;18.40;99.90;;;;;;5033710;28;20561;-82
2021/07/15 00:53:35;;;;;;;0.80;0.20;;;18.40;99.90;;;;;;5034273;28;20583;-82
2021/07/15 00:56:02;;;;;;;0.80;0.20;;;18.30;99.90;;;;;;5033671;28;20568;-82
2021/07/15 00:58:30;;;;;;;0.80;0.20;;;18.40;99.90;;;;;;5033743;28;21024;-82
2021/07/15 01:00:56;;;;;;;0.80;0.20;;;18.40;99.90;;;;;;5033244;28;20671;-82
2021/07/15 01:03:23;;;;;;;0.80;0.20;;;18.40;99.90;;;;;;5032596;28;20587;-82
2021/07/15 01:05:51;;;;;;;0.80;0.20;;;18.40;99.90;;;;;;5030662;28;20942;-82
2021/07/15 01:08:17;;;;;;;0.80;0.20;;;18.40;99.90;;;;;;5052238;28;20614;-83
2021/07/15 01:10:53;;;;;;;0.80;0.20;;;18.40;99.90;;;;;;5053279;28;20613;-82
2021/07/15 01:13:45;;;;;;;0.80;0.30;;;18.40;99.90;;;;;;5052200;28;20599;-82
2021/07/15 01:16:28;;;;;;;0.80;0.20;;;18.40;99.90;;;;;;5053123;28;20579;-82
2021/07/15 01:19:12;;;;;;;0.80;0.20;;;18.40;99.90;;;;;;5052287;28;20583;-82
2021/07/15 01:21:41;;;;;;;0.80;0.20;;;18.40;99.90;;;;;;5035083;28;20607;-82
2021/07/15 01:24:40;;;;;;;0.80;0.20;;;18.40;99.90;;;;;;5053241;28;20572;-82
2021/07/15 01:27:43;;;;;;;0.80;0.20;;;18.40;99.90;;;;;;5051697;28;20575;-82
2021/07/15 01:30:21;;;;;;;0.80;0.20;;;18.30;99.90;;;;;;5051754;28;21118;-82
2021/07/15 01:32:54;;;;;;;0.80;0.20;;;18.30;99.90;;;;;;5051623;28;21010;-83
2021/07/15 01:35:25;;;;;;;0.80;0.20;;;18.30;99.90;;;;;;5053063;28;20575;-83
2021/07/15 01:37:55;;;;;;;0.80;0.30;;;18.30;99.90;;;;;;5051527;28;20657;-82
2021/07/15 01:40:26;;;;;;;0.80;0.20;;;18.20;99.90;;;;;;5052863;28;20583;-82
2021/07/15 01:42:59;;;;;;;0.80;0.30;;;18.20;99.90;;;;;;5058044;28;20698;-82
2021/07/15 01:45:26;;;;;;;0.80;0.20;;;18.20;99.90;;;;;;5051757;28;20618;-83
2021/07/15 01:47:52;;;;;;;0.80;0.30;;;18.20;99.90;;;;;;5051457;28;21158;-83
2021/07/15 01:50:18;;;;;;;0.80;0.20;;;18.20;99.90;;;;;;5052174;28;20571;-83
2021/07/15 01:52:46;;;;;;;0.80;0.20;;;18.20;99.90;;;;;;5059276;28;20959;-82
2021/07/15 01:55:12;;;;;;;0.80;0.30;;;18.20;99.90;;;;;;5052885;28;20610;-82
2021/07/15 01:57:41;;;;;;;0.80;0.20;;;18.20;99.90;;;;;;5051182;28;20634;-82
2021/07/15 02:00:08;;;;;;;0.80;0.20;;;18.30;99.90;;;;;;5053142;28;20614;-82
2021/07/15 02:02:38;;;;;;;0.80;0.20;;;18.30;99.90;;;;;;5053225;28;20698;-82
2021/07/15 02:05:06;;;;;;;0.80;0.20;;;18.30;99.90;;;;;;5053496;28;20567;-82
2021/07/15 02:07:33;;;;;;;0.80;0.20;;;18.30;99.90;;;;;;5058693;28;20583;-82
2021/07/15 02:10:01;;;;;;;0.80;0.30;;;18.30;99.90;;;;;;5053896;28;20578;-82
2021/07/15 02:12:28;;;;;;;0.80;0.20;;;18.30;99.90;;;;;;5035836;28;20614;-82
2021/07/15 02:14:54;;;;;;;0.80;0.20;;;18.30;99.90;;;;;;5067448;28;20564;-82
2021/07/15 02:17:22;;;;;;;0.80;0.20;;;18.30;99.90;;;;;;5076061;28;20661;-82
2021/07/15 02:19:48;;;;;;;0.80;0.20;;;18.30;99.90;;;;;;5073763;28;20587;-82
2021/07/15 02:22:15;;;;;;;0.80;0.20;;;18.30;99.90;;;;;;5075492;28;20683;-81
2021/07/15 02:24:44;;;;;;;0.80;0.20;;;18.30;99.90;;;;;;5075414;28;20574;-81
2021/07/15 02:27:11;;;;;;;0.80;0.20;;;18.30;99.90;;;;;;5074676;28;20571;-80
2021/07/15 02:29:37;;;;;;;0.80;0.20;;;18.20;99.90;;;;;;5040672;28;20591;-81
2021/07/15 02:32:06;;;;;;;0.80;0.20;;;18.20;99.90;;;;;;5051350;28;20621;-81
2021/07/15 02:34:54;;;;;;;0.80;0.30;;;18.20;99.90;;;;;;5051481;28;20169;-81
2021/07/15 02:37:27;;;;;;;0.80;0.20;;;18.10;99.90;;;;;;5051149;28;20799;-81
2021/07/15 02:39:53;;;;;;;0.80;0.30;;;18.10;99.90;;;;;;5052229;28;20694;-81
2021/07/15 02:42:19;;;;;;;0.80;0.30;;;18.10;99.90;;;;;;5034661;28;20619;-81
2021/07/15 02:44:46;;;;;;;0.80;0.23;;;18.20;99.90;;;;;;5034070;28;20937;-81
2021/07/15 02:47:12;;;;;;;0.80;0.20;;;18.20;99.90;;;;;;5033667;28;20572;-82
2021/07/15 02:49:40;;;;;;;0.80;0.20;;;18.30;99.90;;;;;;5033688;28;20625;-81
2021/07/15 02:52:07;;;;;;;0.80;0.20;;;18.30;99.90;;;;;;5051693;28;20947;-81
2021/07/15 02:54:35;;;;;;;0.80;0.20;;;18.30;99.90;;;;;;5051715;28;20666;-81
2021/07/15 02:57:19;;;;;;;0.80;0.20;;;18.40;99.90;;;;;;5040046;28;21202;-81
2021/07/15 02:59:57;;;;;;;0.80;0.20;;;18.40;99.90;;;;;;5033695;28;20562;-81
2021/07/15 03:02:30;;;;;;;0.80;0.20;;;18.50;99.90;;;;;;5033682;28;20963;-82
2021/07/15 03:05:10;;;;;;;0.80;0.20;;;18.50;99.90;;;;;;5033553;28;20571;-82
2021/07/15 03:07:38;;;;;;;0.80;0.20;;;18.60;99.90;;;;;;5033717;28;20614;-82
2021/07/15 03:10:05;;;;;;;0.80;0.20;;;18.60;99.90;;;;;;5035417;28;20576;-81
2021/07/15 03:12:36;;;;;;;0.80;0.20;;;18.70;99.90;;;;;;5037816;28;20618;-81
2021/07/15 03:15:03;;;;;;;0.80;0.30;;;18.70;99.90;;;;;;5055375;28;20571;-81
2021/07/15 03:17:34;;;;;;;0.80;0.20;;;18.70;99.90;;;;;;5055456;28;20619;-81
2021/07/15 03:20:24;;;;;;;0.80;0.20;;;18.80;99.90;;;;;;5055044;28;20598;-82
2021/07/15 03:23:05;;;;;;;0.80;0.20;;;18.80;99.90;;;;;;5055255;28;21015;-82
2021/07/15 03:25:32;;;;;;;0.80;0.20;;;18.80;99.90;;;;;;5037369;28;20603;-82
2021/07/15 03:27:59;;;;;;;0.80;0.20;;;18.80;99.90;;;;;;5055387;28;20567;-82
2021/07/15 03:30:27;;;;;;;0.80;0.20;;;18.80;99.90;;;;;;5054837;28;20571;-82
2021/07/15 03:32:55;;;;;;;0.80;0.30;;;18.80;99.90;;;;;;5062058;28;20664;-81
2021/07/15 03:35:22;;;;;;;0.80;0.20;;;18.90;99.90;;;;;;5055008;28;20985;-81
2021/07/15 03:37:49;;;;;;;0.80;0.23;;;18.90;99.90;;;;;;5055080;28;20619;-81
2021/07/15 03:40:17;;;;;;;0.80;0.20;;;18.90;99.90;;;;;;5052587;28;20579;-81
2021/07/15 03:42:45;;;;;;;0.80;0.20;;;19.00;99.90;;;;;;5053701;28;20595;-81
2021/07/15 03:45:14;;;;;;;0.80;0.30;;;19.00;99.90;;;;;;5055218;28;20579;-79
2021/07/15 03:47:40;;;;;;;0.80;0.20;;;19.00;99.90;;;;;;5056230;28;20625;-79
2021/07/15 03:50:07;;;;;;;0.80;0.20;;;19.10;99.90;;;;;;5056664;28;20985;-79
2021/07/15 03:52:34;;;;;;;0.80;0.30;;;19.10;99.90;;;;;;5055981;28;21178;-79
2021/07/15 03:55:00;;;;;;;0.80;0.20;;;19.10;99.90;;;;;;5058460;28;20567;-79
2021/07/15 03:57:28;;;;;;;0.80;0.20;;;19.10;99.90;;;;;;5058811;28;20622;-79
2021/07/15 03:59:55;;;;;;;0.80;0.20;;;19.20;99.90;;;;;;5056832;28;20603;-79
2021/07/15 04:02:27;;;;;;;0.80;0.20;;;19.20;99.90;;;;;;5055898;28;21181;-79
2021/07/15 04:04:55;;;;;;;0.80;0.20;;;19.20;99.90;;;;;;5058112;28;20571;-79
2021/07/15 04:07:23;;;;;;;0.80;0.20;;;19.20;99.90;;;;;;5058804;28;21033;-79
2021/07/15 04:09:50;;;;;;;0.80;0.20;;;19.10;99.90;;;;;;5061006;28;20572;-79
2021/07/15 04:12:20;;;;;;;0.80;0.20;;;19.10;99.90;;;;;;5057260;28;20614;-79
2021/07/15 04:14:49;;;;;;;0.80;0.20;;;19.10;99.90;;;;;;5058856;28;20621;-78
2021/07/15 04:17:16;;;;;;;0.80;0.20;;;19.10;99.90;;;;;;5057729;28;20686;-78
2021/07/15 04:19:42;;;;;;;0.80;0.20;;;19.10;99.90;;;;;;5050744;28;20576;-78
2021/07/15 04:22:11;;;;;;;0.80;0.20;;;19.10;99.90;;;;;;5043955;28;20618;-78
2021/07/15 04:24:39;;;;;;;0.80;0.20;;;19.20;99.90;;;;;;5055788;28;21127;-78
2021/07/15 04:27:06;;;;;;;0.80;0.20;;;19.20;99.90;;;;;;5054768;28;20567;-78
2021/07/15 04:29:33;;;;;;;0.80;0.30;;;19.20;99.90;;;;;;5055848;28;20582;-78
2021/07/15 04:32:28;;;;;;;0.80;0.20;;;19.20;99.90;;;;;;5058112;28;20618;-79
2021/07/15 04:34:56;;;;;;;0.80;0.20;;;19.20;99.90;;;;;;5025266;28;21161;-79
2021/07/15 04:37:24;;;;;;;0.80;0.20;;;19.30;99.90;;;;;;5057719;28;20614;-79
2021/07/15 04:39:50;;;;;;;0.80;0.20;;;19.30;99.90;;;;;;5055007;28;21145;-78
2021/07/15 04:42:17;;;;;;;0.80;0.20;;;19.40;99.90;;;;;;5056977;28;20599;-78
2021/07/15 04:44:45;;;;;;;0.80;0.20;;;19.40;99.90;;;;;;5058450;28;20663;-78
2021/07/15 04:47:13;;;;;;;0.80;0.20;;;19.50;99.90;;;;;;5059596;28;20571;-79
2021/07/15 04:49:40;;;;;;;0.80;0.20;;;19.50;99.90;;;;;;5057144;28;20581;-78
2021/07/15 04:52:09;;;;;;;0.80;0.20;;;19.50;99.90;;;;;;5058617;28;20606;-79
2021/07/15 04:54:36;;;;;;;0.80;0.20;;;19.60;99.90;;;;;;5055708;28;21042;-78
2021/07/15 04:57:03;;;;;;;0.80;0.20;;;19.60;99.90;;;;;;5053110;28;20622;-78
2021/07/15 04:59:30;;;;;;;0.80;0.20;;;19.50;99.90;;;;;;5052503;28;21192;-78
2021/07/15 05:01:57;;;;;;;0.80;0.20;;;19.50;99.90;;;;;;5056323;28;20862;-78
2021/07/15 05:04:23;;;;;;;0.80;0.20;;;19.50;99.90;;;;;;5054720;28;20578;-78
2021/07/15 05:06:49;;;;;;;0.80;0.20;;;19.40;99.90;;;;;;5054273;28;20696;-78
2021/07/15 05:09:15;;;;;;;0.80;0.20;;;19.40;99.90;;;;;;5053248;28;20680;-78
2021/07/15 05:11:40;;;;;;;0.80;0.20;;;19.40;99.90;;;;;;5054757;28;20184;-78
2021/07/15 05:14:06;;;;;;;0.80;0.20;;;19.40;99.90;;;;;;5054698;28;20165;-78
2021/07/15 05:16:32;;;;;;;0.80;0.20;;;19.40;99.90;;;;;;5057635;28;20176;-78
2021/07/15 05:18:58;;;;;;;0.80;0.20;;;19.50;99.90;;;;;;5057167;28;20166;-78
2021/07/15 05:21:24;;;;;;;0.80;0.20;;;19.70;99.90;;;;;;5056044;28;20607;-78
2021/07/15 05:23:50;;;;;;;0.80;0.20;;;19.80;99.90;;;;;;5055886;28;20927;-78
2021/07/15 05:26:16;;;;;;;0.80;0.20;;;20.00;99.90;;;;;;5054753;28;20567;-77
2021/07/15 05:28:42;;;;;;;0.80;0.20;;;20.10;99.90;;;;;;5053390;28;20197;-77
2021/07/15 05:31:08;;;;;;;0.80;0.20;;;20.30;99.90;;;;;;5051987;28;20567;-77
2021/07/15 05:33:34;;;;;;;0.80;0.20;;;20.40;99.90;;;;;;5053170;28;20579;-77
2021/07/15 05:35:59;;;;;;;0.80;0.20;;;20.50;99.90;;;;;;5053211;28;20568;-77
2021/07/15 05:38:25;;;;;;;0.80;0.20;;;20.60;99.90;;;;;;5052955;28;20606;-77
2021/07/15 05:40:51;;;;;;;0.80;0.20;;;20.70;99.90;;;;;;5052876;28;20161;-77
2021/07/15 05:43:16;;;;;;;0.80;0.20;;;20.70;99.90;;;;;;5054193;28;20202;-77
2021/07/15 05:45:42;;;;;;;0.80;0.20;;;20.70;99.90;;;;;;5054764;28;20165;-76
2021/07/15 05:48:08;;;;;;;0.80;0.20;;;20.80;99.90;;;;;;5052484;28;20165;-76
2021/07/15 05:50:34;;;;;;;0.80;0.20;;;20.80;99.90;;;;;;5052329;28;20173;-76
2021/07/15 05:52:59;;;;;;;0.80;0.20;;;20.90;99.90;;;;;;5017881;28;20200;-76
2021/07/15 05:55:25;;;;;;;0.80;0.23;;;21.00;99.90;;;;;;5033929;28;20169;-76
2021/07/15 05:57:51;;;;;;;0.80;0.20;;;21.10;99.90;;;;;;5017989;28;20269;-76
2021/07/15 06:00:18;;;;;;;0.80;0.20;;;21.30;99.90;;;;;;5034244;28;20176;-76
2021/07/15 06:02:44;;;;;;;0.80;0.20;;;21.50;99.90;;;;;;5034370;28;20220;-77
2021/07/15 06:05:10;;;;;;;0.80;0.20;;;21.80;99.90;;;;;;5017920;28;20653;-78
2021/07/15 06:07:37;;;;;;;0.80;0.20;;;22.00;99.90;;;;;;5034109;28;20529;-78
2021/07/15 06:10:05;;;;;;;0.80;0.20;;;22.10;99.90;;;;;;5052181;28;20610;-78
2021/07/15 06:12:31;;;;;;;0.80;0.20;;;22.30;99.90;;;;;;5051123;28;20611;-78
2021/07/15 06:14:57;;;;;;;0.80;0.20;;;22.50;99.90;;;;;;5034028;28;20955;-77
2021/07/15 06:17:22;;;;;;;0.80;0.20;;;23.10;99.90;;;;;;5051646;28;20201;-78
2021/07/15 06:19:48;;;;;;;0.80;0.20;;;23.70;99.90;;;;;;5051434;28;20253;-78
2021/07/15 06:22:14;;;;;;;0.80;0.20;;;24.10;99.90;;;;;;5052040;28;20550;-77
2021/07/15 06:24:40;;;;;;;0.80;0.20;;;24.30;99.90;;;;;;5051558;28;20567;-77
2021/07/15 06:27:06;;;;;;;0.80;0.20;;;24.40;99.90;;;;;;5051597;28;20976;-77
2021/07/15 06:29:32;;;;;;;0.80;0.20;;;24.40;99.90;;;;;;5051145;28;20736;-77
2021/07/15 06:31:57;;;;;;;0.80;0.20;;;24.30;99.90;;;;;;5033930;28;20204;-77
2021/07/15 06:34:23;;;;;;;0.80;0.20;;;24.30;99.90;;;;;;5033741;28;20637;-77
2021/07/15 06:36:49;;;;;;;0.80;0.20;;;24.20;99.90;;;;;;5055561;28;20204;-77
2021/07/15 06:39:15;;;;;;;0.80;0.20;;;24.00;99.90;;;;;;5041353;28;20243;-77
2021/07/15 06:41:41;;;;;;;0.80;0.20;;;23.90;99.90;;;;;;5051366;28;20189;-77
2021/07/15 06:44:09;;;;;;;0.80;0.30;;;23.80;99.90;;;;;;5049943;28;20263;-77
2021/07/15 06:46:38;;;;;;;0.80;0.20;;;23.70;99.90;;;;;;5050927;28;20629;-77
2021/07/15 06:49:04;;;;;;;0.80;0.20;;;23.60;99.90;;;;;;5051411;28;21155;-77
2021/07/15 06:51:30;;;;;;;0.80;0.20;;;23.50;99.90;;;;;;5051063;28;20610;-77
2021/07/15 06:53:55;;;;;;;0.80;0.20;;;23.40;99.90;;;;;;5051373;28;20592;-77
2021/07/15 06:56:21;;;;;;;0.80;0.20;;;23.30;99.90;;;;;;5051117;28;20571;-77
2021/07/15 06:58:47;;;;;;;0.80;0.20;;;23.30;99.90;;;;;;5050026;28;20702;-77
2021/07/15 07:01:13;;;;;;;0.80;0.20;;;23.30;99.90;;;;;;5049750;28;20201;-77
2021/07/15 07:03:39;;;;;;;0.80;0.20;;;23.30;99.90;;;;;;5051207;28;20176;-77
2021/07/15 07:06:05;;;;;;;0.80;0.20;;;23.30;99.90;;;;;;5053331;28;20271;-78
2021/07/15 07:08:31;;;;;;;0.80;0.20;;;23.40;99.90;;;;;;5050978;28;20575;-78
2021/07/15 07:10:58;;;;;;;0.80;0.20;;;23.50;99.90;;;;;;5049810;28;20578;-77
2021/07/15 07:13:23;;;;;;;0.80;0.20;;;23.50;99.90;;;;;;5055865;28;20192;-78
2021/07/15 07:15:49;;;;;;;0.80;0.20;;;23.50;99.90;;;;;;5051541;28;20592;-77
2021/07/15 07:18:15;;;;;;;0.80;0.20;;;23.50;99.90;;;;;;5051122;28;20208;-77
2021/07/15 07:20:41;;;;;;;0.80;0.20;;;23.50;99.90;;;;;;5033662;28;20173;-77
2021/07/15 07:23:07;;;;;;;0.80;0.20;;;23.60;99.90;;;;;;5051076;28;20189;-77
2021/07/15 07:25:33;;;;;;;0.80;0.20;;;23.70;99.90;;;;;;5032883;28;20180;-77
2021/07/15 07:28:00;;;;;;;0.80;0.20;;;23.90;99.90;;;;;;5052334;28;20721;-79
2021/07/15 07:30:25;;;;;;;0.80;0.20;;;24.30;99.90;;;;;;5052578;28;20583;-78
2021/07/15 07:32:51;;;;;;;0.80;0.30;;;24.40;99.90;;;;;;5055759;28;20610;-78
2021/07/15 07:35:17;;;;;;;0.80;0.20;;;24.60;99.90;;;;;;5056665;28;20252;-78
2021/07/15 07:37:44;;;;;;;0.80;0.20;;;24.80;99.90;;;;;;5053885;28;20211;-79
2021/07/15 07:40:11;;;;;;;0.80;0.20;;;24.90;99.90;;;;;;5052044;28;20599;-78
2021/07/15 07:42:37;;;;;;;0.80;0.30;;;25.00;99.90;;;;;;5052208;28;20603;-76
2021/07/15 07:45:07;;;;;;;0.80;0.20;;;25.30;99.90;;;;;;5052001;28;20574;-79
2021/07/15 07:47:33;;;;;;;0.80;0.20;;;26.00;99.90;;;;;;5058948;28;20576;-78
2021/07/15 07:49:59;;;;;;;0.80;0.20;;;26.90;99.90;;;;;;5051831;28;20591;-78
2021/07/15 07:52:25;;;;;;;0.80;0.20;;;27.50;99.90;;;;;;5050073;28;20648;-78
2021/07/15 07:54:50;;;;;;;0.80;0.20;;;28.10;99.90;;;;;;5050850;28;20177;-77
2021/07/15 07:57:16;;;;;;;0.80;0.20;;;28.60;99.90;;;;;;5053223;28;20648;-78
2021/07/15 07:59:42;;;;;;;0.80;0.20;;;28.90;99.90;;;;;;5054064;28;20311;-78
2021/07/15 08:02:09;;;;;;;0.80;0.20;;;29.30;99.90;;;;;;5053000;28;20185;-79
2021/07/15 08:04:35;;;;;;;0.80;0.20;;;29.60;99.90;;;;;;5053133;28;20169;-78
2021/07/15 08:07:02;;;;;;;0.80;0.20;;;30.00;99.90;;;;;;5054224;28;20669;-78
2021/07/15 08:09:30;;;;;;;0.80;0.20;;;30.40;99.90;;;;;;5054117;28;20580;-79
2021/07/15 08:11:56;;;;;;;0.80;0.20;;;30.60;99.90;;;;;;5054254;28;20707;-79
2021/07/15 08:14:23;;;;;;;0.80;0.20;;;30.70;99.90;;;;;;5054554;28;20666;-79
2021/07/15 08:16:50;;;;;;;0.80;0.20;;;30.70;99.90;;;;;;5053808;28;20575;-79
2021/07/15 08:19:16;;;;;;;0.80;0.20;;;30.60;99.90;;;;;;5054086;28;20656;-80
2021/07/15 08:21:42;;;;;;;0.80;0.20;;;30.20;99.90;;;;;;5053028;28;20603;-80
2021/07/15 08:24:08;;;;;;;0.80;0.20;;;29.70;99.90;;;;;;5055594;28;20567;-79
2021/07/15 08:26:34;;;;;;;0.80;0.20;;;29.50;99.90;;;;;;5057005;28;20567;-80
2021/07/15 08:29:05;;;;;;;0.80;0.20;;;29.50;99.90;;;;;;5055019;28;20574;-79
2021/07/15 08:31:31;;;;;;;0.80;0.20;;;29.50;99.90;;;;;;5071165;28;20193;-80
2021/07/15 08:33:57;;;;;;;0.80;0.20;;;29.80;99.90;;;;;;5054262;28;20639;-81
2021/07/15 08:36:22;;;;;;;0.80;0.20;;;30.00;99.90;;;;;;5052798;28;20196;-80
2021/07/15 08:38:51;;;;;;;0.80;0.20;;;30.20;99.90;;;;;;5053476;28;20203;-80
2021/07/15 08:41:17;;;;;;;0.80;0.20;;;30.60;99.90;;;;;;5035249;28;20190;-79
2021/07/15 08:43:43;;;;;;;0.80;0.20;;;31.00;99.90;;;;;;5018760;28;20627;-79
2021/07/15 08:46:13;;;;;;;0.80;0.20;;;31.40;99.90;;;;;;5018423;28;20996;-79
2021/07/15 08:48:40;;;;;;;0.80;0.20;;;31.50;99.90;;;;;;5053311;28;21174;-79
2021/07/15 08:51:06;;;;;;;0.80;0.20;;;31.40;99.90;;;;;;5052482;28;20575;-80
2021/07/15 08:53:35;;;;;;;0.80;0.20;;;31.20;99.90;;;;;;5053348;28;20568;-79
2021/07/15 08:58:45;;;;;;;0.80;0.20;;;31.00;99.90;;;;;;5019138;28;20766;-78
2021/07/15 09:01:13;;;;;;;0.80;0.20;;;30.90;99.90;;;;;;5052910;28;20666;-80
2021/07/15 09:03:39;;;;;;;0.80;0.20;;;30.70;99.90;;;;;;5057845;28;20159;-79
2021/07/15 09:06:04;;;;;;;1.20;0.87;;;30.50;99.90;;;;;;5053545;28;20957;-79
2021/07/15 09:08:31;;;;;;;1.13;0.80;;;30.30;99.90;;;;;;5053051;28;20900;-79
2021/07/15 09:10:59;;;;;;;1.27;0.93;;;30.30;99.90;;;;;;5035024;28;20198;-79
2021/07/15 09:13:25;;;;;;;1.10;0.80;;;30.20;99.90;;;;;;5053096;28;20652;-79
2021/07/15 09:15:51;;;;;;;1.20;0.97;;;30.20;99.90;;;;;;5053025;28;20599;-79
2021/07/15 09:18:17;;;;;;;1.33;1.07;;;30.20;99.90;;;;;;5053014;28;20218;-79
2021/07/15 09:20:44;;;;;;;1.47;1.27;;;30.20;99.90;;;;;;5052955;28;20615;-79
2021/07/15 09:23:12;;;;;;;1.83;1.73;;;30.60;99.90;;;;;;5052846;28;20623;-80
2021/07/15 09:25:38;;;;;;;2.27;2.10;;;30.90;99.90;;;;;;5052447;28;21124;-80
2021/07/15 09:28:11;;;;;;;1.63;1.53;;;30.80;99.90;;;;;;5035573;28;20572;-80
2021/07/15 09:30:39;;;;;;;1.77;1.67;;;30.80;99.90;;;;;;5034364;28;20690;-79
2021/07/15 09:33:08;;;;;;;1.87;1.73;;;30.90;99.90;;;;;;5052210;28;20622;-79
2021/07/15 09:35:46;;;;;;;2.17;1.70;;;31.00;99.90;;;;;;5044831;28;20581;-80
2021/07/15 09:38:23;;;;;;;2.37;1.50;;;31.30;99.90;;;;;;5051832;28;20709;-81
2021/07/15 09:40:51;;;;;;;1.37;1.27;;;31.60;99.90;;;;;;5056832;28;20596;-80
2021/07/15 09:43:18;;;;;;;1.30;1.10;;;31.80;99.90;;;;;;5052713;28;21006;-80
2021/07/15 09:45:48;;;;;;;1.40;1.00;;;32.10;99.90;;;;;;5052679;28;20949;-79
2021/07/15 09:48:17;;;;;;;1.30;1.10;;;32.30;99.90;;;;;;5033475;28;20585;-79
2021/07/15 09:50:43;;;;;;;1.30;1.00;;;32.40;99.90;;;;;;5034670;28;20649;-79
2021/07/15 09:53:16;;;;;;;1.40;1.20;;;32.30;99.90;;;;;;5034788;28;20604;-79
2021/07/15 09:55:42;;;;;;;1.30;0.90;;;32.10;99.90;;;;;;5034671;28;20230;-80
2021/07/15 09:58:10;;;;;;;1.93;1.03;;;31.80;99.90;;;;;;5052204;28;20616;-80
2021/07/15 10:00:39;;;;;;;2.70;0.97;;;31.50;99.90;;;;;;5034378;28;20576;-79
2021/07/15 10:03:07;;;;;;;1.70;1.00;;;31.20;99.90;;;;;;5052823;28;20610;-80
2021/07/15 10:05:35;;;;;;;1.20;0.90;;;31.00;99.90;;;;;;5035185;28;20976;-80
2021/07/15 10:08:20;;;;;;;1.30;0.80;;;30.50;99.90;;;;;;5034495;28;20567;-80
2021/07/15 10:10:45;;;;;;;1.20;0.70;;;30.10;99.90;;;;;;5034727;28;20591;-81
2021/07/15 10:13:19;;;;;;;1.10;0.73;;;29.70;99.90;;;;;;5034855;28;20600;-82
2021/07/15 10:15:47;;;;;;;1.67;0.80;;;29.30;99.90;;;;;;5035063;28;20250;-81
2021/07/15 10:18:13;;;;;;;1.30;0.70;;;29.10;99.90;;;;;;5055708;28;20621;-81
2021/07/15 10:20:53;;;;;;;2.20;0.80;;;29.00;99.90;;;;;;5017601;28;21122;-82
2021/07/15 10:23:40;;;;;;;2.07;0.60;;;28.90;99.90;;;;;;5034887;28;21245;-79
2021/07/15 10:26:08;;;;;;;1.60;0.97;;;28.90;99.90;;;;;;5035176;28;20931;-79
2021/07/15 10:28:35;;;;;;;1.90;0.80;;;28.80;99.90;;;;;;5035388;28;20697;-80
2021/07/15 10:31:06;;;;;;;1.07;0.60;;;28.70;99.90;;;;;;5034360;28;20579;-80
2021/07/15 10:33:32;;;;;;;1.23;0.60;;;28.70;99.90;;;;;;5052499;28;20671;-80
2021/07/15 10:35:59;;;;;;;1.00;0.50;;;28.70;99.90;;;;;;5052099;28;20567;-79
2021/07/15 10:38:30;;;;;;;1.37;0.60;;;28.60;99.90;;;;;;5035484;28;20619;-80
2021/07/15 10:40:57;;;;;;;1.10;0.60;;;28.60;99.90;;;;;;5051960;28;20660;-81
2021/07/15 10:43:25;;;;;;;1.43;0.70;;;28.60;99.90;;;;;;5052719;28;20694;-81
2021/07/15 10:45:53;;;;;;;1.40;0.60;;;28.50;99.90;;;;;;5051084;28;20564;-81
2021/07/15 10:48:20;;;;;;;1.00;0.70;;;28.50;99.90;;;;;;5052552;28;20578;-77
2021/07/15 10:50:46;;;;;;;1.87;0.70;;;28.40;99.90;;;;;;5050694;28;20921;-79
2021/07/15 10:53:15;;;;;;;1.67;0.70;;;28.40;99.90;;;;;;5053415;28;20631;-78
2021/07/15 10:55:42;;;;;;;3.00;1.47;;;28.30;99.90;;;;;;5056237;28;20173;-78
2021/07/15 10:58:08;;;;;;;2.03;0.80;;;28.30;99.90;;;;;;5052183;28;20639;-80
2021/07/15 11:00:33;;;;;;;1.60;0.77;;;28.20;99.90;;;;;;5057111;28;20563;-79
2021/07/15 11:03:10;;;;;;;2.00;0.77;;;28.10;99.90;;;;;;5058976;28;20662;-79
2021/07/15 11:05:51;;;;;;;2.03;0.80;;;28.00;99.90;;;;;;5037287;28;20180;-79
2021/07/15 11:08:18;;;;;;;1.23;0.80;;;28.00;99.90;;;;;;5059023;28;20624;-80
2021/07/15 11:10:56;;;;;;;1.20;0.80;;;27.90;99.90;;;;;;5056644;28;20644;-79
2021/07/15 11:13:27;;;;;;;1.20;0.87;;;27.90;99.90;;;;;;5056236;28;20651;-78
2021/07/15 11:15:55;;;;;;;1.20;1.00;;;27.80;99.90;;;;;;5055140;28;21058;-78
2021/07/15 11:18:59;;;;;;;1.77;1.67;;;27.80;99.90;;;;;;5059015;28;20617;-79
2021/07/15 11:21:27;;;;;;;1.43;1.30;;;27.70;99.90;;;;;;5053297;28;20604;-79
2021/07/15 11:24:14;;;;;;;2.17;1.53;;;27.70;99.90;;;;;;5055990;28;21093;-79
2021/07/15 11:26:41;;;;;;;1.93;1.60;;;27.60;99.90;;;;;;5058006;28;21044;-78
2021/07/15 11:29:12;;;;;;;2.10;1.90;;;27.60;99.90;;;;;;5058131;28;20580;-78
2021/07/15 11:31:47;;;;;;;1.60;1.37;;;27.50;99.90;;;;;;5059515;28;20615;-78
2021/07/15 11:34:40;;;;;;;1.70;1.33;;;27.50;99.90;;;;;;5067358;28;20677;-80
2021/07/15 11:37:25;;;;;;;1.93;1.37;;;27.40;99.90;;;;;;5075133;28;20610;-79
2021/07/15 11:39:51;;;;;;;1.93;1.83;;;27.30;99.90;;;;;;5075755;28;20681;-80
2021/07/15 11:42:24;;;;;;;1.87;1.70;;;27.30;99.90;;;;;;5058429;28;20654;-80
2021/07/15 11:45:09;;;;;;;2.93;1.90;;;27.30;99.90;;;;;;5055838;28;20567;-81
2021/07/15 11:47:56;;;;;;;1.80;1.23;;;27.30;99.90;;;;;;5037600;28;20590;-79
2021/07/15 11:50:30;;;;;;;2.13;1.13;;;27.20;99.90;;;;;;5054446;28;20606;-80
2021/07/15 11:54:17;;;;;;;1.53;1.03;;;27.20;99.90;;;;;;5055060;28;20590;-79
2021/07/15 11:56:35;;;;;;;1.50;1.20;;;27.20;99.90;;;;;;5051972;28;20595;-79
2021/07/15 11:59:01;;;;;;;1.73;1.37;;;27.20;99.90;;;;;;5036016;28;20625;-79
2021/07/15 12:01:34;;;;;;;1.30;0.90;;;27.20;99.90;;;;;;5055272;28;20668;-79
2021/07/15 12:04:08;;;;;;;1.40;1.30;;;27.20;99.90;;;;;;5038209;28;20211;-79
2021/07/15 12:06:37;;;;;;;1.60;1.20;;;27.20;99.90;;;;;;5036660;28;20579;-79
2021/07/15 12:09:09;;;;;;;4.00;1.20;;;27.20;99.90;;;;;;5058909;28;20626;-79
2021/07/15 12:11:39;;;;;;;1.40;1.07;;;27.10;99.90;;;;;;5054320;28;20605;-80
2021/07/15 12:14:06;;;;;;;1.77;1.10;;;27.10;99.90;;;;;;5019729;28;21409;-79
2021/07/15 12:16:34;;;;;;;2.10;1.17;;;27.10;99.90;;;;;;5053911;28;20567;-79
2021/07/15 12:19:05;;;;;;;2.20;1.07;;;27.10;99.90;;;;;;5053749;28;20633;-80
2021/07/15 12:21:32;;;;;;;1.47;0.90;;;27.00;99.90;;;;;;5035908;28;20599;-79
2021/07/15 12:24:11;;;;;;;1.87;1.57;;;27.00;99.90;;;;;;5019656;28;20613;-79
2021/07/15 12:26:38;;;;;;;3.40;1.37;;;26.90;99.90;;;;;;5002946;28;21208;-80
2021/07/15 12:29:12;;;;;;;1.60;1.07;;;26.90;99.90;;;;;;5054091;28;20571;-80
2021/07/15 12:31:38;;;;;;;2.30;1.53;;;26.90;99.90;;;;;;5053547;28;20635;-79
2021/07/15 12:34:07;;;;;;;2.20;1.47;;;26.90;99.90;;;;;;5053419;28;20606;-79
2021/07/15 12:36:34;;;;;;;2.30;1.90;;;26.90;99.90;;;;;;5053894;28;20205;-79
2021/07/15 12:39:04;;;;;;;2.47;1.60;;;26.90;99.90;;;;;;5041805;28;20622;-79
2021/07/15 12:41:32;;;;;;;1.40;1.10;;;26.90;99.90;;;;;;5056156;28;20745;-79
2021/07/15 12:44:01;;;;;;;2.60;1.30;;;26.90;99.90;;;;;;5054592;28;20567;-79
2021/07/15 12:46:34;;;;;;;2.10;1.90;;;26.90;99.90;;;;;;5054019;28;20671;-79
2021/07/15 12:49:06;;;;;;;1.37;1.17;;;26.80;99.90;;;;;;5053676;28;20915;-79
2021/07/15 12:51:40;;;;;;;2.20;1.10;;;26.80;99.90;;;;;;5056715;28;21170;-79
2021/07/15 12:54:09;;;;;;;1.47;1.33;;;26.80;99.90;;;;;;5037443;28;20574;-79
2021/07/15 12:56:37;;;;;;;1.70;1.40;;;26.90;99.90;;;;;;5056775;28;20563;-79
2021/07/15 12:59:04;;;;;;;1.40;1.23;;;26.90;99.90;;;;;;5055249;28;20619;-79
2021/07/15 13:01:30;;;;;;;2.07;1.00;;;26.90;99.90;;;;;;5051834;28;20667;-79